Time;durP1;ratioP1;P1;durP2;ratioP2;P2;SDS_P1;SDS_P2;PMS_P1;PMS_P2;Temp;Humidity;BMP_temperature;BMP_pressure;BME280_temperature;BME280_humidity;BME280_pressure;Samples;Min_cycle;Max_cycle;Signal;HPM_P1;HPM_P2
2022/10/08 00:00:28;;;;;;;;;6.00;4.25;;;;;11.71;62.42;101071.13;5097053;27;45260;-86
2022/10/08 00:02:53;;;;;;;;;5.00;4.50;;;;;11.64;62.00;101064.16;5095116;27;45336;-86
2022/10/08 00:05:19;;;;;;;;;4.00;3.00;;;;;12.73;63.04;101255.75;5094008;27;45506;-86
2022/10/08 00:07:44;;;;;;;;;5.25;3.50;;;;;12.25;62.71;101179.72;5092409;27;47223;-87
2022/10/08 00:10:10;;;;;;;;;5.75;5.75;;;;;12.29;62.20;101190.28;5056654;28;45490;-86
2022/10/08 00:12:36;;;;;;;;;4.50;4.00;;;;;11.73;63.40;101086.06;5060990;27;45468;-87
2022/10/08 00:15:02;;;;;;;;;4.50;4.50;;;;;12.17;63.14;101173.66;5095601;27;45484;-86
2022/10/08 00:17:28;;;;;;;;;3.75;2.75;;;;;11.63;62.66;101073.88;5095590;27;45431;-86
2022/10/08 00:19:56;;;;;;;;;5.25;4.25;;;;;12.67;62.51;101247.91;5076533;27;45490;-86
2022/10/08 00:22:22;;;;;;;;;4.25;4.00;;;;;12.62;63.13;101241.81;5077009;27;45194;-86
2022/10/08 00:24:48;;;;;;;;;4.75;3.50;;;;;12.72;63.14;101269.03;5095162;27;45482;-86
2022/10/08 00:27:15;;;;;;;;;9.25;8.75;;;;;12.29;63.33;101206.16;5095388;27;45598;-87
2022/10/08 00:29:43;;;;;;;;;3.00;3.00;;;;;12.48;63.28;101247.38;5070659;28;45450;-87
2022/10/08 00:32:09;;;;;;;;;6.00;4.00;;;;;12.65;63.61;101278.91;5076512;28;45440;-85
2022/10/08 00:34:35;;;;;;;;;4.00;3.50;;;;;11.46;64.02;101081.22;5059740;28;45328;-86
2022/10/08 00:37:00;;;;;;;;;6.00;3.25;;;;;11.80;63.39;101134.50;5059691;28;48292;-87
2022/10/08 00:39:25;;;;;;;;;3.00;2.25;;;;;11.56;63.70;101102.22;5069844;28;45513;-86
2022/10/08 00:41:54;;;;;;;;;4.00;3.25;;;;;12.46;63.95;101251.81;5078472;28;45375;-88
2022/10/08 00:44:58;;;;;;;;;5.00;4.00;;;;;12.57;64.64;101273.72;5081898;27;45291;-87
2022/10/08 00:47:32;;;;;;;;;2.50;2.50;;;;;12.55;63.93;101272.84;5080318;27;47993;-87
2022/10/08 00:50:08;;;;;;;;;3.75;3.75;;;;;12.55;64.62;101277.28;5099939;27;45396;-87
2022/10/08 00:52:37;;;;;;;;;3.00;3.00;;;;;11.92;64.64;101181.13;5062450;28;45480;-87
2022/10/08 00:55:06;;;;;;;;;3.00;3.00;;;;;12.51;64.60;101284.44;5060159;28;45335;-87
2022/10/08 00:57:36;;;;;;;;;3.00;2.25;;;;;11.92;64.71;101178.47;5078310;28;45718;-86
2022/10/08 01:00:05;;;;;;;;;4.00;2.75;;;;;11.31;65.10;101090.25;5090619;27;45838;-87
2022/10/08 01:02:31;;;;;;;;;5.25;3.25;;;;;12.23;65.04;101244.25;5077534;28;45348;-84
2022/10/08 01:04:56;;;;;;;;;6.75;3.75;;;;;11.95;64.91;101201.41;5091311;28;44931;-84
2022/10/08 01:07:26;;;;;;;;;4.25;3.50;;;;;12.42;65.34;101272.19;5080567;28;46250;-85
2022/10/08 01:10:07;;;;;;;;;10.50;4.00;;;;;12.40;65.58;101273.13;5077586;28;45357;-84
2022/10/08 01:12:32;;;;;;;;;3.00;3.00;;;;;12.38;65.35;101274.94;5059575;28;45336;-85
2022/10/08 01:15:06;;;;;;;;;3.00;2.00;;;;;12.36;65.28;101276.72;5077326;28;45434;-85
2022/10/08 01:17:50;;;;;;;;;3.00;3.00;;;;;12.32;66.02;101270.59;5078063;28;48236;-83
2022/10/08 01:20:40;;;;;;;;;3.00;3.00;;;;;12.31;66.18;101268.84;5080153;27;45371;-84
2022/10/08 01:23:38;;;;;;;;;2.00;2.00;;;;;12.29;66.54;101275.09;5059564;28;45534;-84
2022/10/08 01:26:33;;;;;;;;;2.50;2.50;;;;;12.12;66.42;101251.50;5077815;28;45476;-85
2022/10/08 01:29:10;;;;;;;;;2.00;2.00;;;;;11.88;66.56;101217.38;5014911;28;46379;-85
2022/10/08 01:31:52;;;;;;;;;3.25;3.25;;;;;11.79;66.94;101195.44;4997600;28;45405;-84
2022/10/08 01:34:39;;;;;;;;;2.75;1.75;;;;;12.17;67.22;101269.06;5012427;28;45466;-85
2022/10/08 01:37:09;;;;;;;;;2.75;2.00;;;;;11.74;67.35;101198.16;5032403;28;45623;-87
2022/10/08 01:39:38;;;;;;;;;1.25;0.75;;;;;11.85;67.38;101203.31;4997902;28;47248;-86
2022/10/08 01:42:06;;;;;;;;;2.50;1.50;;;;;11.84;67.91;101204.19;4997730;28;45494;-86
2022/10/08 01:44:48;;;;;;;;;2.50;2.50;;;;;11.45;67.58;101149.16;5032477;28;45506;-87
2022/10/08 01:47:18;;;;;;;;;1.00;1.00;;;;;12.14;67.61;101277.06;5015902;28;45631;-86
2022/10/08 01:50:08;;;;;;;;;4.00;3.00;;;;;11.70;67.25;101204.41;4997536;28;48063;-87
2022/10/08 01:52:42;;;;;;;;;1.25;1.00;;;;;11.60;68.45;101185.13;4997839;28;45481;-87
2022/10/08 01:55:15;;;;;;;;;4.25;2.75;;;;;11.77;68.66;101213.13;4997973;28;45375;-86
2022/10/08 01:57:43;;;;;;;;;2.00;2.00;;;;;11.64;68.85;101183.31;5035446;28;45540;-87
2022/10/08 02:00:12;;;;;;;;;4.00;2.25;;;;;12.09;69.35;101271.84;5030715;28;46936;-86
2022/10/08 02:02:39;;;;;;;;;2.00;2.00;;;;;11.72;69.17;101186.72;5036715;28;45534;-86
2022/10/08 02:05:05;;;;;;;;;1.75;1.75;;;;;11.52;68.75;101163.19;5037936;27;45568;-85
2022/10/08 02:07:35;;;;;;;;;3.00;3.00;;;;;11.63;68.47;101176.25;5077293;28;45470;-86
2022/10/08 02:10:08;;;;;;;;;2.00;2.00;;;;;12.07;68.88;101248.91;5076391;28;46670;-85
2022/10/08 02:12:35;;;;;;;;;1.50;1.00;;;;;11.73;69.22;101191.97;5058528;28;45668;-86
2022/10/08 02:15:03;;;;;;;;;2.00;2.00;;;;;11.69;69.39;101192.03;5058572;28;45348;-87
2022/10/08 02:17:31;;;;;;;;;1.75;1.50;;;;;11.26;69.39;101126.50;5096711;27;45236;-86
2022/10/08 02:20:28;;;;;;;;;1.00;1.00;;;;;12.06;68.71;101263.06;5073100;27;46901;-86
2022/10/08 02:23:04;;;;;;;;;2.50;2.50;;;;;11.26;69.09;101132.66;5062885;27;45529;-87
2022/10/08 02:25:42;;;;;;;;;1.50;1.50;;;;;12.08;69.49;101255.97;5085355;27;45473;-86
2022/10/08 02:28:18;;;;;;;;;2.00;0.75;;;;;10.95;69.02;101069.59;5078740;27;45578;-83
2022/10/08 02:30:54;;;;;;;;;3.75;1.00;;;;;11.76;69.46;101188.41;5097864;27;46545;-83
2022/10/08 02:33:36;;;;;;;;;2.00;2.00;;;;;11.82;69.17;101198.06;5087404;27;45347;-84
2022/10/08 02:36:05;;;;;;;;;1.75;1.50;;;;;12.26;69.76;101260.97;5076339;27;45333;-84
2022/10/08 02:38:42;;;;;;;;;2.25;2.25;;;;;12.32;70.19;101257.34;5093954;27;45567;-83
2022/10/08 02:41:10;;;;;;;;;2.00;2.00;;;;;12.08;69.68;101213.56;5091281;27;46356;-84
2022/10/08 02:43:40;;;;;;;;;0.75;0.75;;;;;12.39;69.86;101255.44;5074996;27;45575;-84
2022/10/08 02:46:13;;;;;;;;;1.00;1.00;;;;;11.99;69.73;101181.91;5076713;28;45449;-86
2022/10/08 02:48:45;;;;;;;;;2.25;1.25;;;;;11.74;69.90;101137.25;5058534;28;45467;-86
2022/10/08 02:51:14;;;;;;;;;1.00;1.00;;;;;11.72;70.10;101147.88;5064599;27;47001;-85
2022/10/08 02:53:40;;;;;;;;;2.50;1.00;;;;;11.69;70.31;101134.69;5080704;27;45284;-84
2022/10/08 02:56:28;;;;;;;;;2.75;2.75;;;;;12.14;69.52;101216.13;5101255;27;45483;-84
2022/10/08 02:58:54;;;;;;;;;1.50;1.50;;;;;12.06;69.76;101215.38;5103084;27;45565;-84
2022/10/08 03:01:56;;;;;;;;;2.25;1.25;;;;;12.34;70.74;101246.72;5088924;27;45371;-84
2022/10/08 03:04:35;;;;;;;;;1.00;1.00;;;;;12.05;71.02;101203.00;5075755;28;45581;-84
2022/10/08 03:07:01;;;;;;;;;2.00;2.00;;;;;12.16;71.14;101226.69;5075642;28;45360;-84
2022/10/08 03:09:35;;;;;;;;;1.75;1.00;;;;;11.25;71.51;101077.13;5057086;28;45601;-84
2022/10/08 03:12:01;;;;;;;;;2.00;2.00;;;;;12.30;71.59;101250.31;5076942;27;47451;-84
2022/10/08 03:14:28;;;;;;;;;2.00;2.00;;;;;12.14;70.63;101234.66;5078146;27;46333;-84
2022/10/08 03:16:53;;;;;;;;;4.00;2.75;;;;;12.27;71.42;101262.72;5079188;27;45526;-85
2022/10/08 03:19:20;;;;;;;;;5.25;2.00;;;;;11.77;71.43;101176.94;5097292;27;45350;-85
2022/10/08 03:21:49;;;;;;;;;2.25;1.25;;;;;12.24;71.83;101261.91;5070738;27;46779;-85
2022/10/08 03:24:15;;;;;;;;;1.00;1.00;;;;;12.23;71.84;101263.66;5095856;27;45425;-84
2022/10/08 03:26:41;;;;;;;;;3.75;2.00;;;;;12.12;72.24;101241.78;5089235;27;45491;-85
2022/10/08 03:29:06;;;;;;;;;1.00;1.00;;;;;11.45;72.19;101137.69;5095462;27;45268;-84
2022/10/08 03:31:32;;;;;;;;;2.00;2.00;;;;;11.84;72.71;101204.19;5072449;28;47106;-84
2022/10/08 03:33:57;;;;;;;;;1.25;1.00;;;;;11.85;72.31;101212.13;5070711;27;45431;-84
2022/10/08 03:36:24;;;;;;;;;3.00;2.00;;;;;11.79;73.00;101204.25;5095308;27;45446;-86
2022/10/08 03:38:50;;;;;;;;;2.00;2.00;;;;;12.16;73.27;101275.28;5077272;27;45560;-86
2022/10/08 03:41:17;;;;;;;;;1.00;1.00;;;;;11.74;73.13;101211.41;5068746;28;47146;-87
2022/10/08 03:43:44;;;;;;;;;4.00;3.00;;;;;11.98;73.33;101246.38;5073725;27;45813;-86
2022/10/08 03:46:11;;;;;;;;;2.25;1.00;;;;;11.96;73.46;101253.50;5070028;28;45434;-86
2022/10/08 03:48:38;;;;;;;;;1.50;1.50;;;;;11.85;73.25;101243.91;5057120;28;45483;-84
2022/10/08 03:51:10;;;;;;;;;0.75;0.75;;;;;11.51;73.79;101196.72;5078605;27;46588;-85
2022/10/08 03:53:38;;;;;;;;;1.00;0.50;;;;;11.74;73.68;101237.91;5077382;27;45300;-84
2022/10/08 03:56:10;;;;;;;;;2.00;1.75;;;;;12.07;74.06;101302.78;5076908;27;45478;-84
2022/10/08 03:58:36;;;;;;;;;1.00;1.00;;;;;10.92;73.63;101116.38;5077173;27;45362;-83
2022/10/08 04:01:04;;;;;;;;;6.25;3.00;;;;;11.51;73.72;101207.31;5094417;27;46217;-83
2022/10/08 04:03:31;;;;;;;;;2.50;2.00;;;;;11.54;74.56;101225.81;5094622;27;45421;-85
2022/10/08 04:05:57;;;;;;;;;1.00;1.00;;;;;11.82;74.34;101259.84;5095398;27;45333;-84
2022/10/08 04:08:24;;;;;;;;;4.00;2.00;;;;;12.03;74.53;101306.38;5096853;27;45572;-84
2022/10/08 04:10:49;;;;;;;;;2.00;2.00;;;;;10.93;74.43;101132.25;5080452;27;46780;-86
2022/10/08 04:13:18;;;;;;;;;3.00;2.00;;;;;11.31;74.14;101193.47;5081432;27;45361;-86
2022/10/08 04:15:46;;;;;;;;;1.50;1.50;;;;;11.33;74.65;101202.28;5071867;28;45498;-86
2022/10/08 04:18:12;;;;;;;;;2.00;1.00;;;;;11.72;74.81;101259.09;5060310;28;45510;-86
2022/10/08 04:20:38;;;;;;;;;2.75;1.75;;;;;11.57;75.04;101246.06;5078519;28;46005;-86
2022/10/08 04:23:05;;;;;;;;;1.50;1.50;;;;;10.88;74.97;101138.47;5082248;27;45397;-86
2022/10/08 04:25:30;;;;;;;;;2.00;1.75;;;;;11.02;74.83;101160.31;5081100;27;45524;-87
2022/10/08 04:27:55;;;;;;;;;2.75;2.00;;;;;11.54;75.13;101241.69;5082710;27;45536;-86
2022/10/08 04:30:22;;;;;;;;;3.00;3.00;;;;;11.44;75.66;101225.94;5097512;27;45981;-86
2022/10/08 04:32:48;;;;;;;;;3.00;3.00;;;;;11.17;75.93;101197.19;5097973;27;45524;-86
2022/10/08 04:35:13;;;;;;;;;2.00;2.00;;;;;11.96;76.05;101325.88;5078867;28;45562;-85
2022/10/08 04:37:38;;;;;;;;;1.00;1.00;;;;;11.83;76.17;101317.22;5063027;28;45612;-86
2022/10/08 04:40:04;;;;;;;;;1.75;1.75;;;;;10.83;77.16;101147.31;5078586;28;46419;-87
2022/10/08 04:42:29;;;;;;;;;3.00;2.50;;;;;11.89;77.87;101325.06;5059988;28;45303;-87
2022/10/08 04:44:55;;;;;;;;;1.25;1.25;;;;;11.11;78.13;101185.78;5094086;27;45496;-87
2022/10/08 04:47:20;;;;;;;;;4.00;2.00;;;;;10.87;77.99;101160.50;5080139;27;45322;-87
2022/10/08 04:49:45;;;;;;;;;2.25;1.00;;;;;11.34;79.12;101239.31;5066830;28;48285;-87
2022/10/08 04:52:12;;;;;;;;;5.25;5.25;;;;;11.44;78.94;101248.00;5073708;28;45575;-87
2022/10/08 04:54:38;;;;;;;;;3.00;2.00;;;;;11.39;78.56;101244.53;5083270;27;45386;-87
2022/10/08 04:57:03;;;;;;;;;2.25;2.25;;;;;12.03;79.21;101369.97;5081604;27;45334;-85
2022/10/08 04:59:29;;;;;;;;;4.50;2.50;;;;;11.37;79.57;101241.91;5098380;27;46528;-85
2022/10/08 05:01:55;;;;;;;;;2.50;2.00;;;;;12.01;79.57;101354.97;5079028;27;45546;-85
2022/10/08 05:04:21;;;;;;;;;2.00;1.00;;;;;12.00;79.54;101354.09;5080318;27;45430;-85
2022/10/08 05:06:47;;;;;;;;;2.25;2.25;;;;;11.31;79.95;101236.69;5096685;27;45531;-84
2022/10/08 05:09:12;;;;;;;;;2.00;2.00;;;;;11.98;79.73;101370.91;5079000;27;46298;-85
2022/10/08 05:11:39;;;;;;;;;4.00;3.00;;;;;11.20;79.35;101228.00;5097722;27;45457;-85
2022/10/08 05:14:04;;;;;;;;;1.25;1.00;;;;;10.93;79.20;101193.06;5098869;27;45392;-85
2022/10/08 05:16:30;;;;;;;;;2.75;2.75;;;;;11.73;80.38;101326.16;5087345;27;45378;-84
2022/10/08 05:18:56;;;;;;;;;1.50;1.50;;;;;11.31;80.04;101271.09;5076582;28;45512;-85
2022/10/08 05:21:25;;;;;;;;;3.00;2.25;;;;;11.62;80.72;101325.44;5058876;28;45858;-88
2022/10/08 05:23:58;;;;;;;;;2.75;1.25;;;;;11.20;80.46;101252.72;5061120;28;45523;-87
2022/10/08 05:26:26;;;;;;;;;2.00;2.00;;;;;11.68;80.42;101346.56;5093509;27;45449;-86
2022/10/08 05:28:55;;;;;;;;;2.00;2.00;;;;;11.69;80.67;101358.88;5059093;28;48452;-87
2022/10/08 05:31:22;;;;;;;;;2.75;1.50;;;;;11.82;80.31;101375.50;5059910;28;45454;-87
2022/10/08 05:33:48;;;;;;;;;2.75;2.00;;;;;11.81;80.84;101390.53;5060562;28;45363;-87
2022/10/08 05:36:33;;;;;;;;;2.50;2.50;;;;;11.79;80.55;101381.72;5078137;27;45562;-87
2022/10/08 05:39:00;;;;;;;;;3.00;2.00;;;;;11.78;79.88;101376.44;5093994;27;48483;-86
2022/10/08 05:41:31;;;;;;;;;3.75;3.75;;;;;11.77;80.92;101377.31;5095395;27;45490;-87
2022/10/08 05:43:57;;;;;;;;;5.25;3.50;;;;;10.73;80.93;101217.06;5075900;28;45440;-86
2022/10/08 05:46:25;;;;;;;;;4.75;2.25;;;;;11.13;80.37;101280.13;5089001;27;45510;-86
2022/10/08 05:48:55;;;;;;;;;3.50;2.00;;;;;10.98;80.32;101272.38;5096669;27;45459;-87
2022/10/08 05:51:20;;;;;;;;;2.75;1.25;;;;;11.25;81.12;101316.16;5094798;27;45389;-88
2022/10/08 05:53:50;;;;;;;;;2.00;2.00;;;;;11.68;80.57;101394.22;5079854;27;45520;-85
2022/10/08 05:56:19;;;;;;;;;3.50;2.00;;;;;11.65;80.82;101389.81;5097160;27;45514;-85
2022/10/08 05:58:45;;;;;;;;;4.00;3.00;;;;;11.65;80.32;101395.13;5087798;27;45548;-88
2022/10/08 06:01:22;;;;;;;;;2.00;2.00;;;;;11.31;80.54;101345.22;5059441;28;45651;-86
2022/10/08 06:03:50;;;;;;;;;3.25;3.25;;;;;11.62;81.63;101396.94;5058701;28;45536;-86
2022/10/08 06:06:15;;;;;;;;;3.50;2.75;;;;;11.29;81.15;101344.31;5075858;27;45488;-86
2022/10/08 06:08:40;;;;;;;;;3.50;2.50;;;;;11.01;80.88;101304.94;5057944;28;48390;-86
2022/10/08 06:11:06;;;;;;;;;3.00;2.00;;;;;10.87;80.93;101284.81;5090611;27;45299;-86
2022/10/08 06:13:32;;;;;;;;;2.50;2.50;;;;;10.85;80.35;101290.09;5078859;27;45482;-86
2022/10/08 06:16:03;;;;;;;;;4.00;4.00;;;;;10.97;80.57;101294.41;5097255;27;45470;-87
2022/10/08 06:18:32;;;;;;;;;2.25;2.00;;;;;11.45;80.77;101381.22;5078339;27;46947;-85
2022/10/08 06:21:02;;;;;;;;;7.00;3.25;;;;;11.52;80.69;101397.03;5064848;27;45418;-86
2022/10/08 06:23:27;;;;;;;;;2.50;2.50;;;;;11.46;80.64;101383.84;5076566;27;45452;-85
2022/10/08 06:25:53;;;;;;;;;4.50;2.25;;;;;11.04;79.95;101298.75;5101569;27;45385;-86
2022/10/08 06:28:18;;;;;;;;;2.75;2.75;;;;;11.65;80.99;101399.56;5093202;27;55909;-87
2022/10/08 06:30:43;;;;;;;;;4.25;3.00;;;;;11.27;80.10;101335.53;5057146;28;45383;-87
2022/10/08 06:33:10;;;;;;;;;5.00;2.00;;;;;11.93;79.99;101431.91;5078408;28;45352;-88
2022/10/08 06:35:36;;;;;;;;;8.25;4.25;;;;;10.94;80.23;101247.69;5087228;27;45624;-87
2022/10/08 06:38:02;;;;;;;;;2.00;2.00;;;;;12.16;79.87;101441.34;5062625;27;48128;-89
2022/10/08 06:40:31;;;;;;;;;3.75;3.00;;;;;11.80;78.80;101372.00;5065764;27;46057;-89
2022/10/08 06:42:57;;;;;;;;;2.00;2.00;;;;;12.16;78.93;101422.78;5096632;27;45394;-88
2022/10/08 06:45:22;;;;;;;;;5.25;2.50;;;;;11.96;78.77;101370.94;5083196;27;45406;-90
2022/10/08 06:47:48;;;;;;;;;3.25;3.25;;;;;11.95;78.74;101355.94;5100097;27;47210;-89
2022/10/08 06:50:13;;;;;;;;;4.25;3.00;;;;;12.08;78.43;101357.50;5104756;27;45430;-88
2022/10/08 06:52:39;;;;;;;;;2.00;2.00;;;;;11.62;77.42;101259.25;5087887;27;45314;-89
2022/10/08 06:55:04;;;;;;;;;4.00;3.00;;;;;12.17;78.09;101330.00;5061509;28;45355;-86
2022/10/08 06:57:30;;;;;;;;;5.00;3.00;;;;;12.32;77.51;101314.78;5077799;28;45653;-88
2022/10/08 06:59:57;;;;;;;;;5.75;5.75;;;;;12.14;76.04;101253.22;5078208;27;45424;-86
2022/10/08 07:02:23;;;;;;;;;4.00;4.00;;;;;13.11;74.77;101399.25;5097969;27;45377;-86
2022/10/08 07:04:48;;;;;;;;;6.75;4.50;;;;;13.23;75.15;101387.53;5095587;27;45505;-84
2022/10/08 07:07:14;;;;;;;;;5.75;4.00;;;;;14.08;73.86;101470.97;5065080;27;47022;-86
2022/10/08 07:09:40;;;;;;;;;8.25;5.50;;;;;13.91;73.67;101432.31;5076059;27;45459;-86
2022/10/08 07:12:05;;;;;;;;;5.75;5.00;;;;;13.57;72.30;101353.28;5095108;27;45619;-86
2022/10/08 07:14:31;;;;;;;;;7.00;5.50;;;;;14.17;71.86;101436.22;5098561;27;45347;-86
2022/10/08 07:16:56;;;;;;;;;6.75;4.00;;;;;14.41;71.55;101464.06;5090475;27;46226;-86
2022/10/08 07:19:22;;;;;;;;;6.00;4.25;;;;;13.67;71.33;101311.47;5060426;28;45561;-89
2022/10/08 07:21:48;;;;;;;;;5.00;3.75;;;;;14.47;70.22;101402.75;5081286;27;45405;-86
2022/10/08 07:24:13;;;;;;;;;2.00;2.00;;;;;14.78;69.86;101422.47;5057047;28;45320;-88
2022/10/08 07:26:38;;;;;;;;;5.00;3.00;;;;;14.84;68.61;101371.75;5059418;28;46882;-86
2022/10/08 07:29:12;;;;;;;;;4.00;2.75;;;;;15.87;67.60;101485.38;5059265;28;45450;-87
2022/10/08 07:31:38;;;;;;;;;3.75;3.75;;;;;15.17;66.19;101339.81;5083246;27;45512;-86
2022/10/08 07:34:07;;;;;;;;;4.75;4.50;;;;;16.00;66.29;101470.78;5086727;27;45556;-86
2022/10/08 07:36:32;;;;;;;;;5.75;4.00;;;;;15.84;65.15;101397.50;5083265;27;45640;-86
2022/10/08 07:39:16;;;;;;;;;3.75;3.75;;;;;16.77;63.89;101505.84;5057051;28;45321;-87
2022/10/08 07:41:42;;;;;;;;;3.00;2.00;;;;;16.39;63.79;101438.50;5078081;27;45395;-86
2022/10/08 07:44:09;;;;;;;;;3.00;3.00;;;;;16.77;64.05;101492.50;5095287;27;45622;-86
2022/10/08 07:46:36;;;;;;;;;4.00;3.75;;;;;16.56;63.71;101437.13;5087620;27;47526;-85
2022/10/08 07:49:03;;;;;;;;;3.00;3.00;;;;;16.94;62.94;101486.63;5089663;27;45648;-86
2022/10/08 07:51:30;;;;;;;;;6.75;5.25;;;;;16.60;62.47;101391.63;5080445;27;45560;-88
2022/10/08 07:53:56;;;;;;;;;3.25;3.25;;;;;17.51;62.16;101515.97;5081379;27;45460;-85
2022/10/08 07:56:22;;;;;;;;;4.75;3.75;;;;;17.55;61.31;101491.75;5091288;27;47340;-86
2022/10/08 07:58:49;;;;;;;;;4.00;3.50;;;;;17.75;60.61;101499.06;5085311;27;45501;-86
2022/10/08 08:01:17;;;;;;;;;4.25;3.50;;;;;17.93;60.34;101489.53;5089904;27;45450;-86
2022/10/08 08:03:42;;;;;;;;;4.75;4.25;;;;;18.06;59.35;101439.13;5093476;27;45325;-85
2022/10/08 08:06:14;;;;;;;;;6.75;3.75;;;;;19.16;57.74;101491.06;5081553;27;45481;-86
2022/10/08 08:08:41;;;;;;;;;3.50;3.50;;;;;20.22;56.05;101496.31;5088448;27;45393;-86
2022/10/08 08:11:08;;;;;;;;;7.00;5.00;;;;;21.47;52.95;101519.91;5095514;27;45647;-86
2022/10/08 08:13:35;;;;;;;;;6.50;4.25;;;;;22.34;50.02;101503.69;5085673;27;45381;-85
2022/10/08 08:16:05;;;;;;;;;5.00;3.25;;;;;23.43;48.01;101522.72;5082863;27;46404;-86
2022/10/08 08:18:32;;;;;;;;;4.00;4.00;;;;;23.97;45.13;101461.94;5078995;27;45519;-85
2022/10/08 08:21:03;;;;;;;;;4.50;3.50;;;;;24.69;44.42;101464.56;5079264;27;45461;-85
2022/10/08 08:23:34;;;;;;;;;2.75;2.75;;;;;25.06;43.62;101395.41;5077386;27;45548;-85
2022/10/08 08:26:01;;;;;;;;;4.75;3.50;;;;;25.81;40.80;101429.03;5090609;27;46399;-86
2022/10/08 08:28:27;;;;;;;;;6.00;4.00;;;;;26.02;39.83;101376.06;5096337;27;45370;-86
2022/10/08 08:30:53;;;;;;;;;4.25;3.00;;;;;27.23;38.61;101494.59;5073890;27;45372;-86
2022/10/08 08:33:19;;;;;;;;;3.25;1.00;;;;;27.58;38.52;101491.06;5089277;27;45412;-86
2022/10/08 08:35:51;;;;;;;;;3.00;3.00;;;;;28.27;36.05;101537.25;5063245;27;49801;-86
2022/10/08 08:38:16;;;;;;;;;2.00;2.00;;;;;28.32;35.90;101482.53;5089457;27;45408;-85
2022/10/08 08:40:42;;;;;;;;;3.00;2.50;;;;;28.15;36.62;101389.66;5092934;27;44807;-90
2022/10/08 08:43:07;;;;;;;;;2.25;2.25;;;;;28.56;34.99;101394.50;5084496;28;45260;-86
2022/10/08 08:45:35;;;;;;;;;2.25;2.25;;;;;29.39;34.27;101469.13;5082408;27;46125;-88
2022/10/08 08:48:17;;;;;;;;;2.00;2.00;;;;;29.64;33.76;101445.22;5082835;27;45436;-87
2022/10/08 08:50:45;;;;;;;;;5.00;3.00;;;;;29.87;32.55;101452.28;5069454;27;45512;-88
2022/10/08 08:53:11;;;;;;;;;6.00;3.00;;;;;29.85;32.56;101470.63;5088523;27;45560;-87
2022/10/08 08:55:40;;;;;;;;;4.00;2.00;;;;;29.74;33.08;101473.38;5084676;27;46386;-88
2022/10/08 08:58:19;;;;;;;;;1.00;1.00;;;;;29.15;33.01;101483.84;5090824;27;45492;-89
2022/10/08 09:00:56;;;;;;;;;3.00;1.75;;;;;29.35;33.03;101554.75;5081323;27;45327;-88
2022/10/08 09:03:25;;;;;;;;;2.50;2.00;;;;;29.11;33.48;101490.53;5078167;27;45600;-88
2022/10/08 09:05:56;;;;;;;;;4.50;3.25;;;;;29.98;32.70;101557.56;5064214;27;47416;-88
2022/10/08 09:08:28;;;;;;;;;2.00;2.00;;;;;30.09;33.49;101510.31;5096938;27;45515;-88
2022/10/08 09:10:57;;;;;;;;;3.00;3.00;;;;;30.29;31.28;101484.88;5087962;27;45397;-89
2022/10/08 09:13:39;;;;;;;;;6.00;3.50;;;;;30.17;31.02;101507.78;5085375;27;45422;-88
2022/10/08 09:16:05;;;;;;;;;1.50;1.50;;;;;30.08;31.84;101500.41;5074198;27;46202;-88
2022/10/08 09:18:31;;;;;;;;;2.75;2.75;;;;;29.60;30.98;101418.25;5081722;27;45453;-89
2022/10/08 09:20:57;;;;;;;;;2.50;2.00;;;;;30.10;31.08;101506.59;5072790;27;45514;-88
2022/10/08 09:23:24;;;;;;;;;3.25;3.00;;;;;30.39;31.50;101568.53;5096682;27;45574;-88
2022/10/08 09:26:29;;;;;;;;;1.25;1.25;;;;;30.21;31.34;101561.00;5075035;27;47417;-88
2022/10/08 09:28:57;;;;;;;;;5.50;2.50;;;;;30.08;31.13;101563.94;5070959;28;45856;-89
2022/10/08 09:31:31;;;;;;;;;1.00;1.00;;;;;29.47;30.63;101479.34;5063434;27;45372;-88
2022/10/08 09:34:03;;;;;;;;;5.25;2.50;;;;;29.91;31.01;101540.03;5079680;27;45557;-89
2022/10/08 09:36:43;;;;;;;;;2.00;2.00;;;;;30.48;31.05;101576.78;5068826;28;47940;-88
2022/10/08 09:39:30;;;;;;;;;2.25;2.25;;;;;30.94;30.18;101560.84;5087895;27;45298;-88
2022/10/08 09:42:16;;;;;;;;;2.50;1.25;;;;;31.25;28.68;101587.22;5078496;27;45450;-87
2022/10/08 09:44:49;;;;;;;;;4.00;2.25;;;;;31.46;28.05;101585.25;5078350;27;45315;-88
2022/10/08 09:47:19;;;;;;;;;3.50;2.00;;;;;31.25;27.89;101549.00;5094096;27;46424;-87
2022/10/08 09:50:00;;;;;;;;;1.75;1.75;;;;;30.97;28.06;101549.66;5058884;28;45512;-89
2022/10/08 09:52:27;;;;;;;;;1.00;1.00;;;;;31.13;27.93;101557.34;5062874;28;45614;-88
2022/10/08 09:55:14;;;;;;;;;1.00;1.00;;;;;30.95;26.51;101513.47;5076000;27;45557;-87
2022/10/08 09:57:43;;;;;;;;;2.00;2.00;;;;;31.09;27.23;101520.41;5081659;27;47393;-87
2022/10/08 10:00:24;;;;;;;;;2.75;2.50;;;;;31.55;27.34;101579.94;5071626;28;45485;-87
2022/10/08 10:02:55;;;;;;;;;2.50;2.50;;;;;31.08;27.55;101556.91;5083253;27;45348;-87
2022/10/08 10:05:24;;;;;;;;;2.50;1.50;;;;;30.52;27.87;101532.88;5073759;27;45647;-87
2022/10/08 10:07:50;;;;;;;;;2.00;1.00;;;;;30.19;28.71;101535.75;5096076;27;46042;-87
2022/10/08 10:10:43;;;;;;;;;2.00;2.00;;;;;29.56;28.07;101460.38;5073628;27;45589;-88
2022/10/08 10:13:18;;;;;;;;;1.50;1.50;;;;;29.95;27.95;101588.66;5083000;27;45438;-86
2022/10/08 10:15:57;;;;;;;;;1.25;1.25;;;;;28.90;29.62;101490.47;5076830;27;45465;-86
2022/10/08 10:18:31;;;;;;;;;1.00;1.00;;;;;28.41;28.94;101538.84;5071688;28;47670;-87
2022/10/08 10:21:07;;;;;;;;;3.75;2.00;;;;;27.55;30.47;101532.84;5094396;27;45306;-87
2022/10/08 10:23:40;;;;;;;;;2.00;2.00;;;;;26.13;31.29;101455.69;5066039;27;45504;-86
2022/10/08 10:26:24;;;;;;;;;2.25;2.25;;;;;26.25;31.65;101601.06;5067859;27;45616;-86
2022/10/08 10:28:55;;;;;;;;;1.75;1.75;;;;;24.88;33.44;101578.63;5095521;27;47248;-86
2022/10/08 10:31:30;;;;;;;;;2.50;1.00;;;;;23.88;34.96;101539.84;5058555;28;45482;-85
2022/10/08 10:34:23;;;;;;;;;1.75;1.50;;;;;23.72;35.93;101611.84;5080058;27;45339;-87
2022/10/08 10:37:00;;;;;;;;;1.75;1.75;;;;;22.89;36.56;101566.22;5080734;27;45270;-86
2022/10/08 10:39:59;;;;;;;;;2.75;2.00;;;;;22.78;37.44;101609.09;5103497;27;47123;-87
2022/10/08 10:42:54;;;;;;;;;1.50;0.75;;;;;22.26;38.39;101615.41;5087412;27;45493;-87
2022/10/08 10:45:25;;;;;;;;;3.00;1.00;;;;;22.08;38.46;101590.34;5081341;27;45639;-89
2022/10/08 10:47:53;;;;;;;;;1.25;1.25;;;;;21.96;38.59;101562.25;5081471;27;45553;-89
2022/10/08 10:50:29;;;;;;;;;3.00;3.00;;;;;22.39;38.90;101604.91;5075278;27;47306;-88
2022/10/08 10:53:00;;;;;;;;;2.50;2.00;;;;;22.75;38.32;101618.19;5094567;27;45406;-87
2022/10/08 10:55:54;;;;;;;;;1.00;1.00;;;;;22.79;37.88;101618.88;5077183;27;45414;-91
2022/10/08 10:58:33;;;;;;;;;3.50;2.25;;;;;22.40;38.72;101532.13;5075211;27;45209;-91
2022/10/08 11:01:17;;;;;;;;;2.75;2.00;;;;;23.28;38.00;101624.25;5079268;27;47269;-89
2022/10/08 11:03:56;;;;;;;;;3.00;1.50;;;;;23.63;37.55;101626.75;5091183;27;45408;-90
2022/10/08 11:06:30;;;;;;;;;3.25;3.00;;;;;23.65;37.20;101613.16;5075531;27;45325;-90
2022/10/08 11:09:26;;;;;;;;;3.00;1.00;;;;;23.67;36.98;101543.78;5080198;27;45335;-87
2022/10/08 11:12:00;;;;;;;;;2.25;2.25;;;;;24.80;35.88;101603.44;5075038;27;46346;-89
2022/10/08 11:15:00;;;;;;;;;2.00;0.25;;;;;25.14;35.01;101557.13;5084388;27;45438;-87
2022/10/08 11:17:52;;;;;;;;;2.25;1.00;;;;;24.96;33.01;101538.47;5099873;27;45314;-92
2022/10/08 11:20:42;;;;;;;;;2.50;2.50;;;;;24.79;33.04;101571.13;5069543;28;45287;-87
2022/10/08 11:23:28;;;;;;;;;3.00;1.50;;;;;24.99;34.49;101616.66;5091896;27;46264;-86
2022/10/08 11:26:14;;;;;;;;;6.00;3.25;;;;;24.36;34.07;101479.28;5059773;28;45421;-86
2022/10/08 11:29:18;;;;;;;;;6.50;3.00;;;;;25.42;33.65;101601.34;5090133;27;45418;-85
2022/10/08 11:31:49;;;;;;;;;2.00;2.00;;;;;25.84;32.96;101586.72;5068062;27;45333;-85
2022/10/08 11:34:21;;;;;;;;;2.25;1.50;;;;;26.52;31.72;101606.38;5074780;27;46141;-86
2022/10/08 11:37:23;;;;;;;;;2.25;0.75;;;;;26.11;31.96;101534.34;5063116;28;45496;-85
2022/10/08 11:40:26;;;;;;;;;2.00;2.00;;;;;26.28;31.61;101592.72;5085554;27;45549;-85
2022/10/08 11:43:16;;;;;;;;;2.50;2.50;;;;;24.86;31.82;101467.03;5070775;27;45821;-86